sensor_id;sensor_type;location;lat;lon;timestamp;temperature;humidity
6948;DHT22;3513;47.664;9.162;2023-03-19T00:01:58;11.20;82.80
6948;DHT22;3513;47.664;9.162;2023-03-19T00:04:25;11.30;82.50
6948;DHT22;3513;47.664;9.162;2023-03-19T00:06:50;11.30;81.60
6948;DHT22;3513;47.664;9.162;2023-03-19T00:09:17;11.30;81.50
6948;DHT22;3513;47.664;9.162;2023-03-19T00:11:43;11.40;81.50
6948;DHT22;3513;47.664;9.162;2023-03-19T00:14:09;11.40;81.80
6948;DHT22;3513;47.664;9.162;2023-03-19T00:16:35;11.40;81.30
6948;DHT22;3513;47.664;9.162;2023-03-19T00:19:01;11.40;81.70
6948;DHT22;3513;47.664;9.162;2023-03-19T00:21:27;11.30;82.50
6948;DHT22;3513;47.664;9.162;2023-03-19T00:23:52;11.30;82.10
6948;DHT22;3513;47.664;9.162;2023-03-19T00:26:18;11.30;82.30
6948;DHT22;3513;47.664;9.162;2023-03-19T00:28:44;11.30;81.50
6948;DHT22;3513;47.664;9.162;2023-03-19T00:31:14;11.40;82.30
6948;DHT22;3513;47.664;9.162;2023-03-19T00:33:41;11.30;82.60
6948;DHT22;3513;47.664;9.162;2023-03-19T00:36:07;11.30;82.50
6948;DHT22;3513;47.664;9.162;2023-03-19T00:38:33;11.30;82.60
6948;DHT22;3513;47.664;9.162;2023-03-19T00:41:00;11.30;82.30
6948;DHT22;3513;47.664;9.162;2023-03-19T00:43:26;11.30;81.20
6948;DHT22;3513;47.664;9.162;2023-03-19T00:45:52;11.40;79.20
6948;DHT22;3513;47.664;9.162;2023-03-19T00:48:18;11.40;79.10
6948;DHT22;3513;47.664;9.162;2023-03-19T00:50:44;11.40;78.70
6948;DHT22;3513;47.664;9.162;2023-03-19T00:53:10;11.40;78.50
6948;DHT22;3513;47.664;9.162;2023-03-19T00:55:35;11.50;78.40
6948;DHT22;3513;47.664;9.162;2023-03-19T00:58:01;11.50;77.10
6948;DHT22;3513;47.664;9.162;2023-03-19T01:00:27;11.60;76.30
6948;DHT22;3513;47.664;9.162;2023-03-19T01:02:53;11.80;74.20
6948;DHT22;3513;47.664;9.162;2023-03-19T01:05:18;11.80;74.60
6948;DHT22;3513;47.664;9.162;2023-03-19T01:07:44;11.80;73.90
6948;DHT22;3513;47.664;9.162;2023-03-19T01:10:10;11.80;74.00
6948;DHT22;3513;47.664;9.162;2023-03-19T01:12:36;11.80;73.30
6948;DHT22;3513;47.664;9.162;2023-03-19T01:15:02;11.80;73.90
6948;DHT22;3513;47.664;9.162;2023-03-19T01:17:27;11.80;73.80
6948;DHT22;3513;47.664;9.162;2023-03-19T01:19:53;11.80;74.00
6948;DHT22;3513;47.664;9.162;2023-03-19T01:22:19;11.70;74.60
6948;DHT22;3513;47.664;9.162;2023-03-19T01:24:45;11.70;75.70
6948;DHT22;3513;47.664;9.162;2023-03-19T01:27:11;11.70;76.30
6948;DHT22;3513;47.664;9.162;2023-03-19T01:29:37;11.70;76.90
6948;DHT22;3513;47.664;9.162;2023-03-19T01:32:03;11.70;76.80
6948;DHT22;3513;47.664;9.162;2023-03-19T01:34:28;11.60;77.00
6948;DHT22;3513;47.664;9.162;2023-03-19T01:36:54;11.60;76.60
6948;DHT22;3513;47.664;9.162;2023-03-19T01:39:19;11.60;75.40
6948;DHT22;3513;47.664;9.162;2023-03-19T01:41:45;11.60;75.60
6948;DHT22;3513;47.664;9.162;2023-03-19T01:44:23;11.50;76.80
6948;DHT22;3513;47.664;9.162;2023-03-19T01:46:50;11.50;77.00
6948;DHT22;3513;47.664;9.162;2023-03-19T01:49:18;11.50;78.00
6948;DHT22;3513;47.664;9.162;2023-03-19T01:51:46;11.50;77.40
6948;DHT22;3513;47.664;9.162;2023-03-19T01:54:18;11.50;77.40
6948;DHT22;3513;47.664;9.162;2023-03-19T01:56:47;11.50;76.20
6948;DHT22;3513;47.664;9.162;2023-03-19T01:59:19;11.50;76.40
6948;DHT22;3513;47.664;9.162;2023-03-19T02:01:52;11.50;76.80
6948;DHT22;3513;47.664;9.162;2023-03-19T02:04:19;11.50;76.80
6948;DHT22;3513;47.664;9.162;2023-03-19T02:06:45;11.50;76.90
6948;DHT22;3513;47.664;9.162;2023-03-19T02:09:13;11.50;76.30
6948;DHT22;3513;47.664;9.162;2023-03-19T02:11:39;11.50;77.00
6948;DHT22;3513;47.664;9.162;2023-03-19T02:14:05;11.40;76.40
6948;DHT22;3513;47.664;9.162;2023-03-19T02:16:31;11.40;76.80
6948;DHT22;3513;47.664;9.162;2023-03-19T02:18:57;11.40;77.60
6948;DHT22;3513;47.664;9.162;2023-03-19T02:21:23;11.40;78.30
6948;DHT22;3513;47.664;9.162;2023-03-19T02:26:25;11.30;79.00
6948;DHT22;3513;47.664;9.162;2023-03-19T02:28:53;11.30;79.40
6948;DHT22;3513;47.664;9.162;2023-03-19T02:31:19;11.20;80.00
6948;DHT22;3513;47.664;9.162;2023-03-19T02:34:50;11.20;80.40
6948;DHT22;3513;47.664;9.162;2023-03-19T02:36:54;11.10;81.20
6948;DHT22;3513;47.664;9.162;2023-03-19T02:42:10;11.00;82.70
6948;DHT22;3513;47.664;9.162;2023-03-19T02:44:36;11.00;83.70
6948;DHT22;3513;47.664;9.162;2023-03-19T02:47:03;10.90;84.50
6948;DHT22;3513;47.664;9.162;2023-03-19T02:49:29;10.90;84.00
6948;DHT22;3513;47.664;9.162;2023-03-19T02:51:54;10.90;84.70
6948;DHT22;3513;47.664;9.162;2023-03-19T02:54:20;10.90;84.40
6948;DHT22;3513;47.664;9.162;2023-03-19T02:56:46;10.90;84.20
6948;DHT22;3513;47.664;9.162;2023-03-19T02:59:12;10.90;84.00
6948;DHT22;3513;47.664;9.162;2023-03-19T03:01:37;10.90;84.10
6948;DHT22;3513;47.664;9.162;2023-03-19T03:04:03;10.90;85.20
6948;DHT22;3513;47.664;9.162;2023-03-19T03:06:29;10.90;85.60
6948;DHT22;3513;47.664;9.162;2023-03-19T03:08:54;10.80;85.40
6948;DHT22;3513;47.664;9.162;2023-03-19T03:11:21;10.80;85.50
6948;DHT22;3513;47.664;9.162;2023-03-19T03:13:47;10.80;85.40
6948;DHT22;3513;47.664;9.162;2023-03-19T03:16:12;10.80;84.40
6948;DHT22;3513;47.664;9.162;2023-03-19T03:18:38;10.70;83.50
6948;DHT22;3513;47.664;9.162;2023-03-19T03:21:04;10.80;82.40
6948;DHT22;3513;47.664;9.162;2023-03-19T03:23:29;10.80;82.00
6948;DHT22;3513;47.664;9.162;2023-03-19T03:25:55;10.80;81.70
6948;DHT22;3513;47.664;9.162;2023-03-19T03:28:21;10.80;82.50
6948;DHT22;3513;47.664;9.162;2023-03-19T03:30:46;10.80;80.00
6948;DHT22;3513;47.664;9.162;2023-03-19T03:33:13;10.90;79.80
6948;DHT22;3513;47.664;9.162;2023-03-19T03:35:40;10.90;77.80
6948;DHT22;3513;47.664;9.162;2023-03-19T03:38:05;11.00;77.70
6948;DHT22;3513;47.664;9.162;2023-03-19T03:40:31;11.00;76.90
6948;DHT22;3513;47.664;9.162;2023-03-19T03:42:58;11.00;76.80
6948;DHT22;3513;47.664;9.162;2023-03-19T03:45:24;11.10;77.50
6948;DHT22;3513;47.664;9.162;2023-03-19T03:47:50;11.00;77.10
6948;DHT22;3513;47.664;9.162;2023-03-19T03:50:15;11.00;77.20
6948;DHT22;3513;47.664;9.162;2023-03-19T03:52:41;11.00;77.10
6948;DHT22;3513;47.664;9.162;2023-03-19T03:55:07;11.10;76.20
6948;DHT22;3513;47.664;9.162;2023-03-19T03:57:33;11.10;74.90
6948;DHT22;3513;47.664;9.162;2023-03-19T03:59:59;11.20;74.50
6948;DHT22;3513;47.664;9.162;2023-03-19T04:02:25;11.20;74.10
6948;DHT22;3513;47.664;9.162;2023-03-19T04:04:52;11.20;74.20
6948;DHT22;3513;47.664;9.162;2023-03-19T04:07:17;11.20;74.10
6948;DHT22;3513;47.664;9.162;2023-03-19T04:09:43;11.20;74.70
6948;DHT22;3513;47.664;9.162;2023-03-19T04:12:11;11.20;74.90
6948;DHT22;3513;47.664;9.162;2023-03-19T04:14:36;11.20;75.00
6948;DHT22;3513;47.664;9.162;2023-03-19T04:17:02;11.10;74.40
6948;DHT22;3513;47.664;9.162;2023-03-19T04:19:29;11.10;75.00
6948;DHT22;3513;47.664;9.162;2023-03-19T04:21:56;11.20;74.20
6948;DHT22;3513;47.664;9.162;2023-03-19T04:24:22;11.10;73.30
6948;DHT22;3513;47.664;9.162;2023-03-19T04:26:47;11.20;73.40
6948;DHT22;3513;47.664;9.162;2023-03-19T04:29:14;11.10;73.60
6948;DHT22;3513;47.664;9.162;2023-03-19T04:31:40;11.10;73.90
6948;DHT22;3513;47.664;9.162;2023-03-19T04:34:05;11.10;73.60
6948;DHT22;3513;47.664;9.162;2023-03-19T04:36:31;11.10;74.00
6948;DHT22;3513;47.664;9.162;2023-03-19T04:38:57;11.10;75.80
6948;DHT22;3513;47.664;9.162;2023-03-19T04:41:23;11.10;75.40
6948;DHT22;3513;47.664;9.162;2023-03-19T04:43:48;11.10;75.30
6948;DHT22;3513;47.664;9.162;2023-03-19T04:46:14;11.00;75.90
6948;DHT22;3513;47.664;9.162;2023-03-19T04:48:41;11.10;76.30
6948;DHT22;3513;47.664;9.162;2023-03-19T04:51:07;11.10;77.50
6948;DHT22;3513;47.664;9.162;2023-03-19T04:53:36;11.00;77.10
6948;DHT22;3513;47.664;9.162;2023-03-19T04:56:02;11.00;76.30
6948;DHT22;3513;47.664;9.162;2023-03-19T04:58:28;10.90;76.60
6948;DHT22;3513;47.664;9.162;2023-03-19T05:00:53;10.90;77.40
6948;DHT22;3513;47.664;9.162;2023-03-19T05:03:19;10.90;77.20
6948;DHT22;3513;47.664;9.162;2023-03-19T05:05:46;10.80;77.50
6948;DHT22;3513;47.664;9.162;2023-03-19T05:08:11;10.80;77.90
6948;DHT22;3513;47.664;9.162;2023-03-19T05:10:38;10.80;80.00
6948;DHT22;3513;47.664;9.162;2023-03-19T05:13:04;10.70;79.30
6948;DHT22;3513;47.664;9.162;2023-03-19T05:15:30;10.70;79.60
6948;DHT22;3513;47.664;9.162;2023-03-19T05:17:55;10.70;81.10
6948;DHT22;3513;47.664;9.162;2023-03-19T05:20:21;10.60;80.60
6948;DHT22;3513;47.664;9.162;2023-03-19T05:22:48;10.60;79.90
6948;DHT22;3513;47.664;9.162;2023-03-19T05:25:13;10.60;80.20
6948;DHT22;3513;47.664;9.162;2023-03-19T05:27:39;10.60;81.80
6948;DHT22;3513;47.664;9.162;2023-03-19T05:30:06;10.60;81.90
6948;DHT22;3513;47.664;9.162;2023-03-19T05:32:31;10.50;82.30
6948;DHT22;3513;47.664;9.162;2023-03-19T05:34:58;10.40;84.60
6948;DHT22;3513;47.664;9.162;2023-03-19T05:37:24;10.50;86.40
6948;DHT22;3513;47.664;9.162;2023-03-19T05:39:53;10.50;86.70
6948;DHT22;3513;47.664;9.162;2023-03-19T05:42:18;10.50;86.40
6948;DHT22;3513;47.664;9.162;2023-03-19T05:44:44;10.50;86.80
6948;DHT22;3513;47.664;9.162;2023-03-19T05:47:10;10.40;87.70
6948;DHT22;3513;47.664;9.162;2023-03-19T05:49:36;10.40;88.10
6948;DHT22;3513;47.664;9.162;2023-03-19T05:52:02;10.40;88.70
6948;DHT22;3513;47.664;9.162;2023-03-19T05:54:28;10.30;89.40
6948;DHT22;3513;47.664;9.162;2023-03-19T05:56:53;10.30;90.30
6948;DHT22;3513;47.664;9.162;2023-03-19T05:59:19;10.30;90.40
6948;DHT22;3513;47.664;9.162;2023-03-19T06:01:44;10.30;90.70
6948;DHT22;3513;47.664;9.162;2023-03-19T06:04:10;10.30;91.00
6948;DHT22;3513;47.664;9.162;2023-03-19T06:06:36;10.40;91.40
6948;DHT22;3513;47.664;9.162;2023-03-19T06:09:01;10.40;91.60
6948;DHT22;3513;47.664;9.162;2023-03-19T06:11:27;10.40;91.60
6948;DHT22;3513;47.664;9.162;2023-03-19T06:13:53;10.40;91.60
6948;DHT22;3513;47.664;9.162;2023-03-19T06:16:19;10.50;91.90
6948;DHT22;3513;47.664;9.162;2023-03-19T06:18:44;10.40;92.00
6948;DHT22;3513;47.664;9.162;2023-03-19T06:21:11;10.50;92.00
6948;DHT22;3513;47.664;9.162;2023-03-19T06:23:37;10.50;91.90
6948;DHT22;3513;47.664;9.162;2023-03-19T06:26:03;10.50;92.00
6948;DHT22;3513;47.664;9.162;2023-03-19T06:28:30;10.50;92.00
6948;DHT22;3513;47.664;9.162;2023-03-19T06:30:56;10.50;91.90
6948;DHT22;3513;47.664;9.162;2023-03-19T06:33:21;10.50;91.90
6948;DHT22;3513;47.664;9.162;2023-03-19T06:35:50;10.50;92.20
6948;DHT22;3513;47.664;9.162;2023-03-19T06:38:15;10.40;93.10
6948;DHT22;3513;47.664;9.162;2023-03-19T06:40:41;10.40;93.20
6948;DHT22;3513;47.664;9.162;2023-03-19T06:43:06;10.30;93.50
6948;DHT22;3513;47.664;9.162;2023-03-19T06:45:33;10.30;93.50
6948;DHT22;3513;47.664;9.162;2023-03-19T06:47:58;10.30;93.90
6948;DHT22;3513;47.664;9.162;2023-03-19T06:50:24;10.30;94.00
6948;DHT22;3513;47.664;9.162;2023-03-19T06:52:50;10.30;94.10
6948;DHT22;3513;47.664;9.162;2023-03-19T06:55:16;10.30;93.90
6948;DHT22;3513;47.664;9.162;2023-03-19T06:57:42;10.30;93.90
6948;DHT22;3513;47.664;9.162;2023-03-19T07:00:08;10.30;94.00
6948;DHT22;3513;47.664;9.162;2023-03-19T07:02:35;10.30;94.20
6948;DHT22;3513;47.664;9.162;2023-03-19T07:05:01;10.40;94.50
6948;DHT22;3513;47.664;9.162;2023-03-19T07:07:27;10.40;94.60
6948;DHT22;3513;47.664;9.162;2023-03-19T07:09:53;10.40;94.50
6948;DHT22;3513;47.664;9.162;2023-03-19T07:12:18;10.50;94.60
6948;DHT22;3513;47.664;9.162;2023-03-19T07:14:44;10.60;94.50
6948;DHT22;3513;47.664;9.162;2023-03-19T07:17:10;10.60;93.90
6948;DHT22;3513;47.664;9.162;2023-03-19T07:19:35;10.70;93.70
6948;DHT22;3513;47.664;9.162;2023-03-19T07:22:01;10.70;93.40
6948;DHT22;3513;47.664;9.162;2023-03-19T07:24:27;10.80;93.30
6948;DHT22;3513;47.664;9.162;2023-03-19T07:26:52;10.80;93.40
6948;DHT22;3513;47.664;9.162;2023-03-19T07:29:18;10.90;93.60
6948;DHT22;3513;47.664;9.162;2023-03-19T07:31:43;10.90;93.80
6948;DHT22;3513;47.664;9.162;2023-03-19T07:34:09;11.00;93.80
6948;DHT22;3513;47.664;9.162;2023-03-19T07:36:35;11.00;93.80
6948;DHT22;3513;47.664;9.162;2023-03-19T07:39:00;11.10;93.90
6948;DHT22;3513;47.664;9.162;2023-03-19T07:41:26;11.20;94.20
6948;DHT22;3513;47.664;9.162;2023-03-19T07:43:51;11.20;93.90
6948;DHT22;3513;47.664;9.162;2023-03-19T07:46:17;11.30;93.70
6948;DHT22;3513;47.664;9.162;2023-03-19T07:48:42;11.40;93.40
6948;DHT22;3513;47.664;9.162;2023-03-19T07:51:08;11.50;93.10
6948;DHT22;3513;47.664;9.162;2023-03-19T07:53:34;11.60;92.80
6948;DHT22;3513;47.664;9.162;2023-03-19T07:55:59;11.70;92.80
6948;DHT22;3513;47.664;9.162;2023-03-19T07:58:25;11.80;92.20
6948;DHT22;3513;47.664;9.162;2023-03-19T08:00:52;11.90;91.80
6948;DHT22;3513;47.664;9.162;2023-03-19T08:03:18;12.10;91.30
6948;DHT22;3513;47.664;9.162;2023-03-19T08:05:43;12.20;91.00
6948;DHT22;3513;47.664;9.162;2023-03-19T08:08:09;12.30;91.00
6948;DHT22;3513;47.664;9.162;2023-03-19T08:10:35;12.40;90.80
6948;DHT22;3513;47.664;9.162;2023-03-19T08:13:00;12.60;90.50
6948;DHT22;3513;47.664;9.162;2023-03-19T08:15:26;12.60;90.10
6948;DHT22;3513;47.664;9.162;2023-03-19T08:17:59;12.80;89.80
6948;DHT22;3513;47.664;9.162;2023-03-19T08:20:25;12.80;88.80
6948;DHT22;3513;47.664;9.162;2023-03-19T08:22:50;12.90;88.40
6948;DHT22;3513;47.664;9.162;2023-03-19T08:25:16;13.00;88.30
6948;DHT22;3513;47.664;9.162;2023-03-19T08:27:42;13.00;87.80
6948;DHT22;3513;47.664;9.162;2023-03-19T08:30:09;13.10;87.80
6948;DHT22;3513;47.664;9.162;2023-03-19T08:32:35;13.20;87.00
6948;DHT22;3513;47.664;9.162;2023-03-19T08:35:02;13.30;86.30
6948;DHT22;3513;47.664;9.162;2023-03-19T08:37:27;13.30;84.80
6948;DHT22;3513;47.664;9.162;2023-03-19T08:39:53;13.50;85.10
6948;DHT22;3513;47.664;9.162;2023-03-19T08:42:20;13.50;84.90
6948;DHT22;3513;47.664;9.162;2023-03-19T08:44:47;13.60;83.60
6948;DHT22;3513;47.664;9.162;2023-03-19T08:47:14;13.80;82.90
6948;DHT22;3513;47.664;9.162;2023-03-19T08:49:39;13.90;82.30
6948;DHT22;3513;47.664;9.162;2023-03-19T08:52:05;14.00;81.70
6948;DHT22;3513;47.664;9.162;2023-03-19T08:54:32;14.10;81.10
6948;DHT22;3513;47.664;9.162;2023-03-19T08:56:59;14.20;80.90
6948;DHT22;3513;47.664;9.162;2023-03-19T08:59:25;14.30;80.70
6948;DHT22;3513;47.664;9.162;2023-03-19T09:01:52;14.40;80.80
6948;DHT22;3513;47.664;9.162;2023-03-19T09:04:19;14.40;80.30
6948;DHT22;3513;47.664;9.162;2023-03-19T09:06:45;14.50;79.40
6948;DHT22;3513;47.664;9.162;2023-03-19T09:09:10;14.60;79.30
6948;DHT22;3513;47.664;9.162;2023-03-19T09:11:36;14.70;78.60
6948;DHT22;3513;47.664;9.162;2023-03-19T09:14:01;14.80;77.90
6948;DHT22;3513;47.664;9.162;2023-03-19T09:16:27;14.80;76.40
6948;DHT22;3513;47.664;9.162;2023-03-19T09:18:54;14.90;76.40
6948;DHT22;3513;47.664;9.162;2023-03-19T09:21:20;15.00;75.80
6948;DHT22;3513;47.664;9.162;2023-03-19T09:23:46;15.20;74.80
6948;DHT22;3513;47.664;9.162;2023-03-19T09:26:11;15.30;74.30
6948;DHT22;3513;47.664;9.162;2023-03-19T09:28:37;15.40;72.80
6948;DHT22;3513;47.664;9.162;2023-03-19T09:31:02;15.60;71.30
6948;DHT22;3513;47.664;9.162;2023-03-19T09:33:31;15.70;71.00
6948;DHT22;3513;47.664;9.162;2023-03-19T09:35:57;15.80;71.50
6948;DHT22;3513;47.664;9.162;2023-03-19T09:38:24;15.90;70.00
6948;DHT22;3513;47.664;9.162;2023-03-19T09:41:12;15.90;69.30
6948;DHT22;3513;47.664;9.162;2023-03-19T09:43:58;16.00;69.80
6948;DHT22;3513;47.664;9.162;2023-03-19T09:46:42;16.00;70.00
6948;DHT22;3513;47.664;9.162;2023-03-19T09:49:33;15.90;69.60
6948;DHT22;3513;47.664;9.162;2023-03-19T09:54:45;15.80;70.20
6948;DHT22;3513;47.664;9.162;2023-03-19T09:57:12;15.70;70.00
6948;DHT22;3513;47.664;9.162;2023-03-19T09:59:38;15.50;70.30
6948;DHT22;3513;47.664;9.162;2023-03-19T10:05:21;15.40;70.40
6948;DHT22;3513;47.664;9.162;2023-03-19T10:08:20;15.30;70.10
6948;DHT22;3513;47.664;9.162;2023-03-19T10:16:34;15.10;70.60
6948;DHT22;3513;47.664;9.162;2023-03-19T10:19:03;15.10;69.80
6948;DHT22;3513;47.664;9.162;2023-03-19T10:21:35;14.90;70.00
6948;DHT22;3513;47.664;9.162;2023-03-19T10:24:21;14.80;70.70
6948;DHT22;3513;47.664;9.162;2023-03-19T10:26:57;14.80;70.10
6948;DHT22;3513;47.664;9.162;2023-03-19T10:29:23;14.80;70.00
6948;DHT22;3513;47.664;9.162;2023-03-19T10:34:42;15.00;68.90
6948;DHT22;3513;47.664;9.162;2023-03-19T10:37:34;15.10;67.80
6948;DHT22;3513;47.664;9.162;2023-03-19T10:40:01;15.20;67.00
6948;DHT22;3513;47.664;9.162;2023-03-19T10:45:23;15.40;66.70
6948;DHT22;3513;47.664;9.162;2023-03-19T10:47:50;15.60;66.40
6948;DHT22;3513;47.664;9.162;2023-03-19T10:50:19;15.70;65.00
6948;DHT22;3513;47.664;9.162;2023-03-19T10:52:55;15.70;64.40
6948;DHT22;3513;47.664;9.162;2023-03-19T10:55:24;15.70;64.30
6948;DHT22;3513;47.664;9.162;2023-03-19T10:57:56;15.80;63.60
6948;DHT22;3513;47.664;9.162;2023-03-19T11:00:29;15.90;63.50
6948;DHT22;3513;47.664;9.162;2023-03-19T11:02:59;16.00;63.20
6948;DHT22;3513;47.664;9.162;2023-03-19T11:05:30;16.00;63.10
6948;DHT22;3513;47.664;9.162;2023-03-19T11:08:04;16.10;62.30
6948;DHT22;3513;47.664;9.162;2023-03-19T11:10:33;16.00;61.30
6948;DHT22;3513;47.664;9.162;2023-03-19T11:13:22;16.00;62.10
6948;DHT22;3513;47.664;9.162;2023-03-19T11:15:48;16.30;62.20
6948;DHT22;3513;47.664;9.162;2023-03-19T11:18:20;16.10;61.90
6948;DHT22;3513;47.664;9.162;2023-03-19T11:21:01;16.20;61.60
6948;DHT22;3513;47.664;9.162;2023-03-19T11:23:36;16.10;60.60
6948;DHT22;3513;47.664;9.162;2023-03-19T11:26:03;16.20;61.00
6948;DHT22;3513;47.664;9.162;2023-03-19T11:28:29;16.20;60.80
6948;DHT22;3513;47.664;9.162;2023-03-19T11:36:19;15.90;61.10
6948;DHT22;3513;47.664;9.162;2023-03-19T11:42:24;16.00;61.40
6948;DHT22;3513;47.664;9.162;2023-03-19T11:55:50;16.60;59.20
6948;DHT22;3513;47.664;9.162;2023-03-19T12:06:50;17.20;58.40
6948;DHT22;3513;47.664;9.162;2023-03-19T12:12:24;17.40;57.10
6948;DHT22;3513;47.664;9.162;2023-03-19T12:15:59;17.60;56.50
6948;DHT22;3513;47.664;9.162;2023-03-19T12:18:12;17.70;55.80
6948;DHT22;3513;47.664;9.162;2023-03-19T12:31:49;17.30;55.40
6948;DHT22;3513;47.664;9.162;2023-03-19T12:34:34;17.20;55.30
6948;DHT22;3513;47.664;9.162;2023-03-19T12:37:20;17.20;55.30
6948;DHT22;3513;47.664;9.162;2023-03-19T12:42:38;17.10;55.80
6948;DHT22;3513;47.664;9.162;2023-03-19T12:45:24;17.10;56.00
6948;DHT22;3513;47.664;9.162;2023-03-19T12:47:58;17.10;56.00
6948;DHT22;3513;47.664;9.162;2023-03-19T12:50:26;17.20;56.00
6948;DHT22;3513;47.664;9.162;2023-03-19T12:52:54;17.20;55.90
6948;DHT22;3513;47.664;9.162;2023-03-19T12:58:23;17.20;55.90
6948;DHT22;3513;47.664;9.162;2023-03-19T13:03:54;17.40;55.20
6948;DHT22;3513;47.664;9.162;2023-03-19T13:06:29;17.60;55.10
6948;DHT22;3513;47.664;9.162;2023-03-19T13:11:52;18.10;54.70
6948;DHT22;3513;47.664;9.162;2023-03-19T13:17:27;18.50;54.30
6948;DHT22;3513;47.664;9.162;2023-03-19T13:19:57;18.60;52.90
6948;DHT22;3513;47.664;9.162;2023-03-19T13:22:31;18.70;52.90
6948;DHT22;3513;47.664;9.162;2023-03-19T13:24:59;18.70;52.20
6948;DHT22;3513;47.664;9.162;2023-03-19T13:27:28;18.70;51.80
6948;DHT22;3513;47.664;9.162;2023-03-19T13:33:20;18.60;52.90
6948;DHT22;3513;47.664;9.162;2023-03-19T13:35:37;18.60;52.30
6948;DHT22;3513;47.664;9.162;2023-03-19T13:38:21;18.50;52.10
6948;DHT22;3513;47.664;9.162;2023-03-19T13:40:54;18.40;52.50
6948;DHT22;3513;47.664;9.162;2023-03-19T13:46:04;18.30;51.40
6948;DHT22;3513;47.664;9.162;2023-03-19T13:48:51;18.10;51.80
6948;DHT22;3513;47.664;9.162;2023-03-19T13:59:38;17.20;53.20
6948;DHT22;3513;47.664;9.162;2023-03-19T14:05:07;16.80;53.30
6948;DHT22;3513;47.664;9.162;2023-03-19T14:07:41;16.60;54.20
6948;DHT22;3513;47.664;9.162;2023-03-19T14:10:24;16.60;54.00
6948;DHT22;3513;47.664;9.162;2023-03-19T14:12:59;16.50;54.40
6948;DHT22;3513;47.664;9.162;2023-03-19T14:15:27;16.50;54.30
6948;DHT22;3513;47.664;9.162;2023-03-19T14:17:53;16.60;54.10
6948;DHT22;3513;47.664;9.162;2023-03-19T14:20:25;16.70;55.00
6948;DHT22;3513;47.664;9.162;2023-03-19T14:23:09;16.80;55.20
6948;DHT22;3513;47.664;9.162;2023-03-19T14:25:57;16.90;54.90
6948;DHT22;3513;47.664;9.162;2023-03-19T14:28:34;17.10;54.00
6948;DHT22;3513;47.664;9.162;2023-03-19T14:31:02;17.00;53.90
6948;DHT22;3513;47.664;9.162;2023-03-19T14:33:42;17.00;54.10
6948;DHT22;3513;47.664;9.162;2023-03-19T14:36:14;16.90;52.40
6948;DHT22;3513;47.664;9.162;2023-03-19T14:39:19;16.90;52.70
6948;DHT22;3513;47.664;9.162;2023-03-19T14:41:42;16.90;52.90
6948;DHT22;3513;47.664;9.162;2023-03-19T14:52:24;16.60;54.10
6948;DHT22;3513;47.664;9.162;2023-03-19T14:55:12;16.30;54.40
6948;DHT22;3513;47.664;9.162;2023-03-19T14:57:38;16.30;54.40
6948;DHT22;3513;47.664;9.162;2023-03-19T15:00:06;16.40;54.80
6948;DHT22;3513;47.664;9.162;2023-03-19T15:02:40;16.40;54.60
6948;DHT22;3513;47.664;9.162;2023-03-19T15:05:22;16.50;55.20
6948;DHT22;3513;47.664;9.162;2023-03-19T15:07:49;16.20;55.10
6948;DHT22;3513;47.664;9.162;2023-03-19T15:10:20;16.20;55.90
6948;DHT22;3513;47.664;9.162;2023-03-19T15:18:18;16.00;56.90
6948;DHT22;3513;47.664;9.162;2023-03-19T15:20:48;15.90;57.50
6948;DHT22;3513;47.664;9.162;2023-03-19T15:23:18;15.80;57.90
6948;DHT22;3513;47.664;9.162;2023-03-19T15:25:46;15.70;58.30
6948;DHT22;3513;47.664;9.162;2023-03-19T15:28:15;15.50;59.10
6948;DHT22;3513;47.664;9.162;2023-03-19T15:30:42;15.40;59.40
6948;DHT22;3513;47.664;9.162;2023-03-19T15:33:22;15.40;59.60
6948;DHT22;3513;47.664;9.162;2023-03-19T15:35:56;15.30;60.10
6948;DHT22;3513;47.664;9.162;2023-03-19T15:38:25;15.30;59.10
6948;DHT22;3513;47.664;9.162;2023-03-19T15:40:52;15.30;59.30
6948;DHT22;3513;47.664;9.162;2023-03-19T15:43:18;15.20;59.00
6948;DHT22;3513;47.664;9.162;2023-03-19T15:45:47;15.10;58.60
6948;DHT22;3513;47.664;9.162;2023-03-19T15:48:19;15.00;58.90
6948;DHT22;3513;47.664;9.162;2023-03-19T15:50:50;14.90;59.00
6948;DHT22;3513;47.664;9.162;2023-03-19T15:53:21;14.90;59.40
6948;DHT22;3513;47.664;9.162;2023-03-19T15:55:49;14.80;61.30
6948;DHT22;3513;47.664;9.162;2023-03-19T15:58:20;14.50;62.50
6948;DHT22;3513;47.664;9.162;2023-03-19T16:00:46;14.30;63.20
6948;DHT22;3513;47.664;9.162;2023-03-19T16:03:24;14.00;64.00
6948;DHT22;3513;47.664;9.162;2023-03-19T16:06:01;13.90;64.80
6948;DHT22;3513;47.664;9.162;2023-03-19T16:08:28;13.80;65.20
6948;DHT22;3513;47.664;9.162;2023-03-19T16:10:54;13.70;66.30
6948;DHT22;3513;47.664;9.162;2023-03-19T16:13:40;13.60;67.20
6948;DHT22;3513;47.664;9.162;2023-03-19T16:18:53;13.50;68.90
6948;DHT22;3513;47.664;9.162;2023-03-19T16:26:36;13.30;70.20
6948;DHT22;3513;47.664;9.162;2023-03-19T16:29:27;13.20;71.10
6948;DHT22;3513;47.664;9.162;2023-03-19T16:31:58;13.10;71.50
6948;DHT22;3513;47.664;9.162;2023-03-19T16:34:30;13.00;72.10
6948;DHT22;3513;47.664;9.162;2023-03-19T16:36:59;13.00;73.40
6948;DHT22;3513;47.664;9.162;2023-03-19T16:39:34;12.90;74.00
6948;DHT22;3513;47.664;9.162;2023-03-19T16:42:16;12.90;75.30
6948;DHT22;3513;47.664;9.162;2023-03-19T16:44:50;12.70;77.10
6948;DHT22;3513;47.664;9.162;2023-03-19T16:47:16;12.60;79.10
6948;DHT22;3513;47.664;9.162;2023-03-19T16:49:42;12.40;81.50
6948;DHT22;3513;47.664;9.162;2023-03-19T16:52:17;12.30;83.20
6948;DHT22;3513;47.664;9.162;2023-03-19T16:54:44;12.10;85.10
6948;DHT22;3513;47.664;9.162;2023-03-19T16:57:12;11.90;86.90
6948;DHT22;3513;47.664;9.162;2023-03-19T16:59:39;11.80;88.90
6948;DHT22;3513;47.664;9.162;2023-03-19T17:02:12;11.60;90.00
6948;DHT22;3513;47.664;9.162;2023-03-19T17:04:38;11.50;91.30
6948;DHT22;3513;47.664;9.162;2023-03-19T17:07:05;11.30;92.20
6948;DHT22;3513;47.664;9.162;2023-03-19T17:09:30;11.10;93.40
6948;DHT22;3513;47.664;9.162;2023-03-19T17:11:56;10.90;94.90
6948;DHT22;3513;47.664;9.162;2023-03-19T17:14:22;10.90;95.80
6948;DHT22;3513;47.664;9.162;2023-03-19T17:16:48;10.80;96.10
6948;DHT22;3513;47.664;9.162;2023-03-19T17:19:19;10.80;96.60
6948;DHT22;3513;47.664;9.162;2023-03-19T17:21:47;10.70;96.80
6948;DHT22;3513;47.664;9.162;2023-03-19T17:24:23;10.70;96.70
6948;DHT22;3513;47.664;9.162;2023-03-19T17:26:49;10.70;96.70
6948;DHT22;3513;47.664;9.162;2023-03-19T17:29:15;10.70;97.00
6948;DHT22;3513;47.664;9.162;2023-03-19T17:31:41;10.70;96.90
6948;DHT22;3513;47.664;9.162;2023-03-19T17:34:11;10.70;97.20
6948;DHT22;3513;47.664;9.162;2023-03-19T17:36:38;10.70;97.40
6948;DHT22;3513;47.664;9.162;2023-03-19T17:39:05;10.70;97.70
6948;DHT22;3513;47.664;9.162;2023-03-19T17:41:31;10.70;97.60
6948;DHT22;3513;47.664;9.162;2023-03-19T17:43:58;10.80;97.50
6948;DHT22;3513;47.664;9.162;2023-03-19T17:46:26;10.80;97.50
6948;DHT22;3513;47.664;9.162;2023-03-19T17:48:53;10.70;97.40
6948;DHT22;3513;47.664;9.162;2023-03-19T17:51:22;10.70;97.50
6948;DHT22;3513;47.664;9.162;2023-03-19T17:53:53;10.80;97.60
6948;DHT22;3513;47.664;9.162;2023-03-19T17:56:22;10.80;97.60
6948;DHT22;3513;47.664;9.162;2023-03-19T17:58:49;10.80;97.60
6948;DHT22;3513;47.664;9.162;2023-03-19T18:01:26;10.80;97.80
6948;DHT22;3513;47.664;9.162;2023-03-19T18:03:52;10.80;97.90
6948;DHT22;3513;47.664;9.162;2023-03-19T18:06:22;10.70;98.40
6948;DHT22;3513;47.664;9.162;2023-03-19T18:08:48;10.70;98.80
6948;DHT22;3513;47.664;9.162;2023-03-19T18:11:14;10.70;98.90